createdAt,value
2018-12-05T00:02:55.470Z,6.40
2018-12-05T00:07:59.999Z,6.30
2018-12-05T00:13:05.197Z,6.40
2018-12-05T00:18:08.790Z,6.40
2018-12-05T00:23:13.672Z,6.30
2018-12-05T00:28:18.299Z,6.30
2018-12-05T00:33:23.540Z,6.30
2018-12-05T00:38:28.382Z,6.30
2018-12-05T00:43:33.014Z,6.10
2018-12-05T00:48:37.745Z,6.00
2018-12-05T00:53:42.461Z,6.00
2018-12-05T00:58:47.205Z,6.00
2018-12-05T01:03:51.944Z,6.00
2018-12-05T01:08:56.883Z,6.00
2018-12-05T01:14:01.416Z,6.10
2018-12-05T01:19:06.340Z,6.10
2018-12-05T01:24:12.520Z,6.10
2018-12-05T01:29:16.131Z,6.00
2018-12-05T01:34:20.948Z,6.00
2018-12-05T01:39:26.015Z,5.90
2018-12-05T01:44:30.554Z,6.00
2018-12-05T01:49:35.455Z,6.00
2018-12-05T01:54:40.144Z,6.00
2018-12-05T01:59:44.247Z,5.90
2018-12-05T02:04:49.057Z,5.80
2018-12-05T02:09:54.160Z,5.70
2018-12-05T02:14:58.867Z,5.50
2018-12-05T02:20:04.559Z,5.40
2018-12-05T02:25:08.019Z,5.30
2018-12-05T02:30:12.741Z,5.20
2018-12-05T02:35:18.139Z,5.20
2018-12-05T02:40:22.475Z,5.20
2018-12-05T02:45:27.050Z,5.30
2018-12-05T02:50:31.191Z,5.20
2018-12-05T02:55:35.704Z,5.10
2018-12-05T03:00:40.645Z,5.00
2018-12-05T03:05:45.167Z,4.90
2018-12-05T03:10:49.514Z,4.90
2018-12-05T03:15:54.395Z,4.90
2018-12-05T03:20:59.233Z,5.00
2018-12-05T03:26:04.261Z,5.20
2018-12-05T03:31:08.826Z,5.30
2018-12-05T03:36:12.479Z,5.30
2018-12-05T03:41:17.282Z,5.20
2018-12-05T03:46:22.132Z,5.30
2018-12-05T03:51:27.209Z,5.40
2018-12-05T03:56:31.612Z,5.40
2018-12-05T04:01:36.180Z,5.40
2018-12-05T04:06:39.813Z,5.50
2018-12-05T04:11:44.225Z,5.60
2018-12-05T04:16:49.045Z,5.50
2018-12-05T04:21:53.760Z,5.50
2018-12-05T04:26:57.910Z,5.40
2018-12-05T04:32:06.126Z,5.50
2018-12-05T04:37:09.755Z,5.50
2018-12-05T04:42:14.859Z,5.40
2018-12-05T04:47:19.403Z,5.50
2018-12-05T04:52:24.538Z,5.50
2018-12-05T04:57:29.298Z,5.50
2018-12-05T05:02:33.897Z,5.40
2018-12-05T05:07:39.010Z,5.50
2018-12-05T05:12:44.000Z,5.40
2018-12-05T05:17:48.008Z,5.40
2018-12-05T05:22:51.526Z,5.30
2018-12-05T05:27:56.474Z,5.30
2018-12-05T05:33:00.291Z,5.20
2018-12-05T05:38:05.400Z,5.20
2018-12-05T05:43:15.683Z,5.20
2018-12-05T05:48:19.078Z,5.20
2018-12-05T05:53:24.414Z,5.20
2018-12-05T05:58:29.546Z,5.20
2018-12-05T06:03:34.232Z,5.20
2018-12-05T06:08:37.844Z,5.20
2018-12-05T06:13:41.833Z,5.20
2018-12-05T06:18:46.524Z,5.10
2018-12-05T06:23:51.638Z,5.10
2018-12-05T06:28:56.521Z,5.10
2018-12-05T06:34:01.503Z,5.20
2018-12-05T06:39:08.007Z,5.20
2018-12-05T06:44:12.838Z,5.20
2018-12-05T06:49:17.471Z,5.20
2018-12-05T06:54:21.710Z,5.30
2018-12-05T06:59:26.113Z,5.30
2018-12-05T07:04:29.699Z,5.30
2018-12-05T07:09:34.002Z,5.30
2018-12-05T07:14:39.107Z,5.40
2018-12-05T07:19:43.278Z,5.30
2018-12-05T07:24:48.204Z,5.40
2018-12-05T07:29:53.016Z,5.40
2018-12-05T07:34:57.954Z,5.50
2018-12-05T07:40:01.461Z,5.50
2018-12-05T07:45:06.078Z,5.50
2018-12-05T07:50:09.499Z,5.50
2018-12-05T07:55:13.289Z,5.60
2018-12-05T08:00:18.032Z,5.60
2018-12-05T08:05:25.585Z,5.60
2018-12-05T08:10:31.882Z,5.80
2018-12-05T08:15:35.644Z,5.90
2018-12-05T08:20:40.528Z,6.00
2018-12-05T08:25:44.112Z,6.10
2018-12-05T08:30:48.748Z,6.20
2018-12-05T08:35:53.581Z,6.20
2018-12-05T08:40:57.890Z,6.20
2018-12-05T08:46:01.601Z,6.10
2018-12-05T08:51:05.206Z,6.20
2018-12-05T08:56:09.720Z,6.30
2018-12-05T09:01:13.347Z,6.30
2018-12-05T09:06:17.844Z,6.40
2018-12-05T09:11:22.766Z,6.50
2018-12-05T09:16:28.034Z,6.70
2018-12-05T09:21:32.830Z,6.70
2018-12-05T09:26:37.618Z,6.60
2018-12-05T09:31:42.207Z,6.70
2018-12-05T09:36:47.116Z,6.70
2018-12-05T09:41:52.226Z,6.80
2018-12-05T09:46:56.998Z,7.00
2018-12-05T09:52:01.319Z,7.20
2018-12-05T09:57:06.455Z,7.30
2018-12-05T10:02:11.939Z,7.50
2018-12-05T10:07:16.844Z,7.50
2018-12-05T10:12:21.707Z,7.40
2018-12-05T10:17:26.310Z,7.60
2018-12-05T10:22:32.403Z,7.60
2018-12-05T10:27:37.113Z,7.60
2018-12-05T10:32:41.494Z,7.60
2018-12-05T10:37:46.567Z,7.60
2018-12-05T10:42:53.045Z,7.70
2018-12-05T10:47:58.271Z,7.70
2018-12-05T10:53:03.096Z,7.70
2018-12-05T10:58:07.915Z,7.80
2018-12-05T11:03:17.763Z,7.90
2018-12-05T11:08:24.803Z,8.00
2018-12-05T11:13:34.955Z,7.90
2018-12-05T11:18:45.623Z,7.90
2018-12-05T11:23:55.278Z,8.10
2018-12-05T11:28:59.009Z,8.20
2018-12-05T11:34:03.148Z,8.30
2018-12-05T11:39:07.174Z,8.20
2018-12-05T11:44:10.687Z,8.30
2018-12-05T11:49:14.528Z,8.30
2018-12-05T11:54:18.424Z,8.50
2018-12-05T11:59:23.543Z,8.90
2018-12-05T12:04:29.297Z,8.80
2018-12-05T12:09:33.866Z,8.60
2018-12-05T12:14:38.484Z,8.70
2018-12-05T12:19:42.231Z,8.80
2018-12-05T12:24:46.759Z,8.80
2018-12-05T12:29:51.065Z,9.00
2018-12-05T12:34:59.096Z,8.90
2018-12-05T12:40:05.096Z,8.70
2018-12-05T12:45:12.409Z,9.00
2018-12-05T12:50:17.750Z,9.20
2018-12-05T12:55:24.706Z,9.40
2018-12-05T13:00:29.684Z,9.30
2018-12-05T13:05:35.004Z,9.40
2018-12-05T13:10:40.159Z,9.50
2018-12-05T13:15:47.023Z,9.50
2018-12-05T13:20:53.012Z,9.40
2018-12-05T13:25:57.812Z,9.30
2018-12-05T13:31:02.617Z,9.20
2018-12-05T13:36:07.129Z,9.10
2018-12-05T13:41:12.218Z,8.80
2018-12-05T13:46:17.159Z,8.70
2018-12-05T13:51:22.951Z,8.70
2018-12-05T13:56:31.211Z,8.70
2018-12-05T14:01:36.324Z,8.80
2018-12-05T14:06:40.581Z,8.70
2018-12-05T14:11:45.704Z,8.60
2018-12-05T14:16:50.451Z,8.30
2018-12-05T14:21:55.481Z,8.20
2018-12-05T14:27:00.189Z,7.90
2018-12-05T14:32:05.326Z,7.80
2018-12-05T14:37:09.473Z,7.70
2018-12-05T14:42:14.319Z,7.60
2018-12-05T14:47:20.512Z,7.60
2018-12-05T14:52:26.552Z,7.60
2018-12-05T14:57:30.836Z,7.50
2018-12-05T15:02:36.236Z,7.50
2018-12-05T15:07:41.318Z,7.50
2018-12-05T15:12:48.854Z,7.50
2018-12-05T15:17:53.686Z,7.30
2018-12-05T15:22:58.770Z,7.20
2018-12-05T15:28:02.683Z,7.40
2018-12-05T15:33:08.125Z,7.30
2018-12-05T15:38:13.086Z,7.00
2018-12-05T15:43:18.314Z,6.80
2018-12-05T15:48:24.173Z,6.70
2018-12-05T15:53:31.252Z,6.50
2018-12-05T15:58:35.791Z,6.60
2018-12-05T16:03:43.408Z,6.40
2018-12-05T16:08:48.702Z,6.40
2018-12-05T16:13:54.138Z,6.40
2018-12-05T16:18:58.281Z,6.40
2018-12-05T16:24:03.266Z,6.40
2018-12-05T16:29:06.746Z,6.60
2018-12-05T16:34:11.716Z,6.60
2018-12-05T16:39:17.688Z,6.60
2018-12-05T16:44:23.119Z,6.50
2018-12-05T16:49:28.187Z,6.40
2018-12-05T16:54:33.624Z,6.60
2018-12-05T16:59:44.286Z,6.60
2018-12-05T17:04:48.925Z,6.60
2018-12-05T17:09:53.535Z,6.40
2018-12-05T17:14:58.106Z,6.40
2018-12-05T17:20:03.990Z,6.40
2018-12-05T17:25:08.560Z,6.40
2018-12-05T17:30:12.515Z,6.60
2018-12-05T17:35:16.337Z,6.70
2018-12-05T17:40:21.018Z,6.70
2018-12-05T17:45:25.325Z,6.60
2018-12-05T17:50:30.077Z,6.60
2018-12-05T17:55:35.071Z,6.60
2018-12-05T18:00:41.616Z,6.70
2018-12-05T18:05:45.664Z,6.60
2018-12-05T18:10:50.357Z,6.50
2018-12-05T18:15:54.429Z,6.40
2018-12-05T18:20:59.147Z,6.40
2018-12-05T18:26:03.309Z,6.40
2018-12-05T18:31:07.737Z,6.40
2018-12-05T18:36:12.190Z,6.40
2018-12-05T18:41:16.995Z,6.40
2018-12-05T18:46:21.014Z,6.40
2018-12-05T18:51:26.320Z,6.40
2018-12-05T18:56:31.474Z,6.30
2018-12-05T19:01:35.646Z,6.20
2018-12-05T19:06:39.194Z,6.20
2018-12-05T19:11:44.318Z,6.10
2018-12-05T19:16:51.260Z,6.20
2018-12-05T19:21:56.858Z,6.00
2018-12-05T19:27:02.465Z,6.20
2018-12-05T19:32:06.329Z,6.10
2018-12-05T19:37:11.619Z,6.10
2018-12-05T19:42:17.580Z,6.10
2018-12-05T19:47:24.741Z,6.20
2018-12-05T19:52:30.906Z,6.20
2018-12-05T19:57:36.882Z,6.10
2018-12-05T20:02:41.451Z,6.10
2018-12-05T20:07:46.544Z,6.20
2018-12-05T20:12:50.677Z,6.20
2018-12-05T20:17:56.310Z,6.30
2018-12-05T20:23:02.093Z,6.30
2018-12-05T20:28:06.586Z,6.40
2018-12-05T20:33:12.441Z,6.40
2018-12-05T20:38:17.062Z,6.40
2018-12-05T20:43:21.581Z,6.30
2018-12-05T20:48:26.845Z,6.30
2018-12-05T20:53:32.516Z,6.30
2018-12-05T20:58:36.265Z,6.30
2018-12-05T21:03:40.764Z,6.30
2018-12-05T21:08:46.061Z,6.30
2018-12-05T21:13:50.638Z,6.40
2018-12-05T21:18:56.033Z,6.40
2018-12-05T21:24:01.412Z,6.40
2018-12-05T21:29:05.262Z,6.40
2018-12-05T21:34:10.506Z,6.50
2018-12-05T21:39:15.819Z,6.40
2018-12-05T21:44:19.379Z,6.40
2018-12-05T21:49:23.250Z,6.30
2018-12-05T21:54:28.378Z,6.20
2018-12-05T21:59:33.491Z,6.40
2018-12-05T22:04:38.991Z,6.40
2018-12-05T22:09:42.799Z,6.50
2018-12-05T22:14:48.001Z,6.50
2018-12-05T22:19:52.518Z,6.60
2018-12-05T22:24:57.750Z,6.50
2018-12-05T22:30:01.387Z,6.60
2018-12-05T22:35:05.283Z,6.60
2018-12-05T22:40:08.816Z,6.60
2018-12-05T22:45:12.757Z,6.60
2018-12-05T22:50:17.346Z,6.50
2018-12-05T22:55:21.641Z,6.50
2018-12-05T23:00:26.981Z,6.50
2018-12-05T23:05:30.464Z,6.40
2018-12-05T23:10:34.216Z,6.40
2018-12-05T23:15:38.509Z,6.40
2018-12-05T23:20:42.209Z,6.40
2018-12-05T23:25:45.957Z,6.40
2018-12-05T23:30:50.366Z,6.40
2018-12-05T23:35:53.959Z,6.40
2018-12-05T23:40:57.728Z,6.40
2018-12-05T23:46:01.238Z,6.50
2018-12-05T23:51:05.258Z,6.50
2018-12-05T23:56:09.072Z,6.40
